Time;durP1;ratioP1;P1;durP2;ratioP2;P2;SDS_P1;SDS_P2;PMS_P1;PMS_P2;Temp;Humidity;BMP_temperature;BMP_pressure;BME280_temperature;BME280_humidity;BME280_pressure;Samples;Min_cycle;Max_cycle;Signal;HPM_P1;HPM_P2
2021/01/19 00:02:12;;;;;;;2.40;1.20;;;19.30;43.30;;;;;;4998149;28;20485;-69
2021/01/19 00:04:38;;;;;;;3.53;1.37;;;19.30;43.10;;;;;;4984774;28;20519;-69
2021/01/19 00:07:04;;;;;;;2.60;1.40;;;19.30;43.10;;;;;;4986766;28;20492;-68
2021/01/19 00:09:31;;;;;;;2.30;1.40;;;19.40;43.00;;;;;;4993516;28;20487;-68
2021/01/19 00:11:57;;;;;;;6.87;1.50;;;19.40;43.00;;;;;;4996014;28;21322;-69
2021/01/19 00:14:23;;;;;;;1.67;1.57;;;19.40;42.90;;;;;;4996280;28;20519;-68
2021/01/19 00:16:50;;;;;;;2.53;1.30;;;19.50;42.90;;;;;;4993597;28;20492;-69
2021/01/19 00:19:16;;;;;;;2.97;1.40;;;19.50;42.90;;;;;;4993653;28;20477;-69
2021/01/19 00:21:42;;;;;;;6.40;1.10;;;19.60;42.80;;;;;;4993354;28;20480;-69
2021/01/19 00:24:08;;;;;;;2.23;1.67;;;19.60;42.80;;;;;;4994670;28;20489;-69
2021/01/19 00:26:37;;;;;;;1.00;0.90;;;19.70;42.90;;;;;;4994631;28;20508;-70
2021/01/19 00:29:03;;;;;;;3.30;1.23;;;19.70;42.80;;;;;;4993479;28;20486;-69
2021/01/19 00:31:29;;;;;;;2.67;1.27;;;19.70;42.70;;;;;;4992547;28;20992;-70
2021/01/19 00:33:55;;;;;;;1.67;1.30;;;19.70;42.60;;;;;;4993469;28;21019;-70
2021/01/19 00:36:21;;;;;;;6.13;1.20;;;19.70;42.70;;;;;;4995901;28;22088;-69
2021/01/19 00:38:47;;;;;;;4.70;1.23;;;19.70;42.50;;;;;;4996044;28;20985;-70
2021/01/19 00:41:13;;;;;;;1.27;1.17;;;19.70;42.50;;;;;;4991954;28;20495;-69
2021/01/19 00:43:40;;;;;;;3.17;1.40;;;19.60;42.50;;;;;;4992069;28;20543;-69
2021/01/19 00:46:06;;;;;;;4.30;1.87;;;19.60;42.60;;;;;;4993850;28;20504;-68
2021/01/19 00:48:33;;;;;;;1.77;1.43;;;19.50;42.60;;;;;;4994997;28;21027;-69
2021/01/19 00:50:59;;;;;;;6.77;1.47;;;19.50;42.70;;;;;;4995914;28;20993;-69
2021/01/19 00:53:25;;;;;;;1.57;1.47;;;19.50;42.90;;;;;;4991037;28;20493;-68
2021/01/19 00:55:51;;;;;;;1.33;1.23;;;19.40;42.80;;;;;;4993975;28;20534;-69
2021/01/19 00:58:18;;;;;;;1.27;1.17;;;19.40;42.90;;;;;;4991731;28;20548;-69
2021/01/19 01:00:45;;;;;;;2.20;1.77;;;19.40;42.90;;;;;;4993125;28;21588;-70
2021/01/19 01:03:11;;;;;;;1.67;1.27;;;19.40;43.00;;;;;;4995468;28;20546;-69
2021/01/19 01:05:37;;;;;;;5.63;2.20;;;19.40;43.00;;;;;;4991221;28;20509;-69
2021/01/19 01:08:03;;;;;;;4.80;1.40;;;19.30;43.00;;;;;;4991216;28;20493;-68
2021/01/19 01:10:30;;;;;;;2.10;1.27;;;19.30;43.00;;;;;;4994518;28;20482;-68
2021/01/19 01:12:56;;;;;;;2.57;1.40;;;19.30;43.00;;;;;;4993592;28;20491;-68
2021/01/19 01:15:30;;;;;;;1.30;1.20;;;19.30;43.00;;;;;;4991985;28;20528;-69
2021/01/19 01:17:57;;;;;;;3.50;2.10;;;19.30;42.90;;;;;;4992518;28;20862;-68
2021/01/19 01:20:23;;;;;;;1.63;1.53;;;19.30;42.80;;;;;;4993121;28;20488;-68
2021/01/19 01:22:50;;;;;;;1.63;1.40;;;19.40;43.60;;;;;;4984615;28;20476;-68
2021/01/19 01:25:16;;;;;;;1.93;1.53;;;19.40;42.90;;;;;;4991965;28;20560;-69
2021/01/19 01:27:43;;;;;;;4.97;1.70;;;19.40;42.80;;;;;;4994098;28;21494;-69
2021/01/19 01:30:10;;;;;;;1.87;1.73;;;19.40;42.80;;;;;;4989835;28;21293;-69
2021/01/19 01:32:38;;;;;;;2.83;1.50;;;19.40;42.70;;;;;;4984708;28;20492;-68
2021/01/19 01:35:06;;;;;;;1.63;1.20;;;19.40;42.70;;;;;;5002514;28;21142;-69
2021/01/19 01:37:33;;;;;;;1.60;1.47;;;19.40;42.80;;;;;;4992080;28;20518;-69
2021/01/19 01:39:59;;;;;;;1.20;1.20;;;19.40;42.80;;;;;;4992993;28;20547;-69
2021/01/19 01:42:25;;;;;;;3.00;1.53;;;19.40;42.80;;;;;;4993878;28;20497;-69
2021/01/19 01:44:52;;;;;;;1.67;1.30;;;19.40;42.90;;;;;;4992552;28;20493;-68
2021/01/19 01:47:23;;;;;;;2.93;1.50;;;19.40;42.90;;;;;;4988171;28;20495;-68
2021/01/19 01:49:49;;;;;;;3.53;1.67;;;19.30;42.80;;;;;;4978572;28;20477;-69
2021/01/19 01:52:16;;;;;;;1.43;1.20;;;19.30;42.70;;;;;;4994393;28;20480;-68
2021/01/19 01:54:42;;;;;;;1.00;0.97;;;19.30;42.80;;;;;;4991724;28;20481;-69
2021/01/19 01:57:08;;;;;;;1.60;1.37;;;19.30;42.80;;;;;;4994352;28;20496;-69
2021/01/19 01:59:35;;;;;;;5.33;1.93;;;19.30;42.80;;;;;;4991269;28;21096;-69
2021/01/19 02:02:08;;;;;;;4.40;2.40;;;19.30;42.80;;;;;;4992750;28;20492;-69
2021/01/19 02:04:34;;;;;;;1.70;1.60;;;19.30;42.80;;;;;;4991742;28;20568;-68
2021/01/19 02:07:01;;;;;;;1.63;1.27;;;19.30;42.90;;;;;;4991764;28;21484;-68
2021/01/19 02:09:28;;;;;;;4.33;1.73;;;19.30;42.80;;;;;;4994035;28;20819;-68
2021/01/19 02:11:56;;;;;;;4.47;1.60;;;19.30;42.80;;;;;;4982710;28;20640;-68
2021/01/19 02:14:26;;;;;;;1.43;1.33;;;19.30;42.80;;;;;;4970906;28;20480;-69
2021/01/19 02:17:00;;;;;;;3.13;1.60;;;19.30;42.70;;;;;;4984330;28;20519;-69
2021/01/19 02:19:49;;;;;;;3.00;1.30;;;19.30;42.80;;;;;;4992014;28;20490;-68
2021/01/19 02:22:27;;;;;;;1.70;1.63;;;19.40;43.60;;;;;;4990878;28;20475;-67
2021/01/19 02:25:03;;;;;;;2.40;2.20;;;19.40;42.70;;;;;;4987389;28;20489;-68
2021/01/19 02:27:46;;;;;;;2.10;1.50;;;19.50;42.60;;;;;;4997801;28;21126;-69
2021/01/19 02:30:19;;;;;;;1.70;1.20;;;19.50;42.60;;;;;;4980574;28;20515;-67
2021/01/19 02:32:53;;;;;;;2.43;1.67;;;19.50;42.50;;;;;;4971158;28;20494;-67
2021/01/19 02:35:22;;;;;;;1.30;1.30;;;19.40;42.40;;;;;;4967767;28;20473;-68
2021/01/19 02:37:51;;;;;;;1.57;1.47;;;19.40;42.50;;;;;;4992151;28;20477;-67
2021/01/19 02:40:18;;;;;;;1.83;1.47;;;19.40;42.50;;;;;;4993609;28;20494;-67
2021/01/19 02:42:58;;;;;;;2.20;1.97;;;19.40;42.60;;;;;;4989569;28;20496;-67
2021/01/19 02:45:25;;;;;;;1.90;1.80;;;19.40;42.60;;;;;;4996567;28;20884;-69
2021/01/19 02:47:51;;;;;;;3.43;2.13;;;19.40;42.50;;;;;;4990668;28;20484;-68
2021/01/19 02:50:18;;;;;;;2.80;2.00;;;19.40;42.60;;;;;;4979644;28;20941;-68
2021/01/19 02:52:44;;;;;;;2.30;2.03;;;19.40;42.60;;;;;;4991304;28;20489;-69
2021/01/19 02:55:11;;;;;;;2.70;2.07;;;19.40;42.50;;;;;;4982565;28;20484;-68
2021/01/19 02:57:43;;;;;;;2.20;1.70;;;19.50;42.60;;;;;;4991994;28;20552;-68
2021/01/19 03:00:11;;;;;;;1.73;1.63;;;19.50;42.50;;;;;;4991563;28;20504;-68
2021/01/19 03:02:39;;;;;;;3.03;2.00;;;19.50;42.40;;;;;;4987769;28;20492;-68
2021/01/19 03:05:09;;;;;;;2.03;1.93;;;19.50;42.40;;;;;;4992121;28;20567;-68
2021/01/19 03:07:36;;;;;;;1.87;1.77;;;19.50;42.40;;;;;;4980986;28;20509;-68
2021/01/19 03:10:03;;;;;;;3.10;2.10;;;19.40;42.30;;;;;;4991947;28;20500;-68
2021/01/19 03:12:29;;;;;;;14.17;3.77;;;19.40;42.50;;;;;;4990362;28;20493;-69
2021/01/19 03:14:56;;;;;;;2.23;2.03;;;19.40;42.50;;;;;;4989724;28;20491;-70
2021/01/19 03:17:22;;;;;;;2.30;2.13;;;19.40;42.50;;;;;;4983447;28;20480;-68
2021/01/19 03:19:48;;;;;;;2.20;2.10;;;19.40;42.50;;;;;;4992433;28;20479;-68
2021/01/19 03:22:15;;;;;;;1.67;1.67;;;19.40;42.60;;;;;;4990343;28;20476;-69
2021/01/19 03:24:41;;;;;;;1.90;1.63;;;19.40;42.60;;;;;;4992309;28;20477;-68
2021/01/19 03:27:08;;;;;;;2.27;1.73;;;19.40;42.50;;;;;;4975299;28;20504;-68
2021/01/19 03:29:34;;;;;;;1.90;1.80;;;19.40;42.40;;;;;;4992757;28;20496;-68
2021/01/19 03:32:00;;;;;;;2.23;2.03;;;19.40;42.50;;;;;;4982844;28;20492;-68
2021/01/19 03:34:26;;;;;;;3.47;2.67;;;19.40;42.40;;;;;;4992220;28;20543;-68
2021/01/19 03:36:52;;;;;;;2.77;2.50;;;19.40;42.40;;;;;;4999136;28;20547;-68
2021/01/19 03:39:20;;;;;;;2.30;2.10;;;19.40;42.40;;;;;;4983762;28;20483;-68
2021/01/19 03:41:46;;;;;;;2.87;2.67;;;19.40;42.40;;;;;;4991630;28;20495;-69
2021/01/19 03:44:12;;;;;;;2.27;2.17;;;19.40;42.50;;;;;;4989909;28;20540;-69
2021/01/19 03:46:38;;;;;;;2.30;2.10;;;19.50;42.40;;;;;;4991357;28;20548;-69
2021/01/19 03:49:04;;;;;;;2.60;1.57;;;19.50;42.30;;;;;;4990304;28;20484;-68
2021/01/19 03:51:31;;;;;;;2.27;2.17;;;19.40;42.40;;;;;;4992495;28;20888;-68
2021/01/19 03:53:57;;;;;;;2.47;2.17;;;19.40;42.40;;;;;;4990997;28;20488;-68
2021/01/19 03:56:24;;;;;;;2.07;1.93;;;19.40;42.50;;;;;;4994319;28;20917;-68
2021/01/19 03:58:50;;;;;;;3.67;3.37;;;19.40;42.50;;;;;;4980246;28;20488;-67
2021/01/19 04:01:16;;;;;;;4.33;2.43;;;19.40;42.50;;;;;;4989074;28;20489;-68
2021/01/19 04:03:43;;;;;;;2.67;2.53;;;19.40;42.50;;;;;;4992307;28;21473;-69
2021/01/19 04:06:10;;;;;;;2.60;2.40;;;19.40;42.30;;;;;;4989607;28;20654;-68
2021/01/19 04:08:37;;;;;;;2.43;2.23;;;19.40;42.10;;;;;;4982221;28;20489;-68
2021/01/19 04:11:03;;;;;;;2.80;2.60;;;19.40;42.20;;;;;;4992937;28;21502;-68
2021/01/19 04:13:30;;;;;;;4.53;2.80;;;19.40;42.00;;;;;;4978962;28;20495;-67
2021/01/19 04:15:57;;;;;;;2.83;2.73;;;19.40;42.00;;;;;;4990465;28;20480;-68
2021/01/19 04:18:23;;;;;;;3.53;3.20;;;19.40;41.80;;;;;;4992223;28;20492;-67
2021/01/19 04:20:50;;;;;;;2.97;2.67;;;19.50;41.70;;;;;;4990941;28;20479;-68
2021/01/19 04:23:16;;;;;;;3.00;2.80;;;19.50;41.70;;;;;;4989149;28;21005;-68
2021/01/19 04:25:42;;;;;;;2.93;2.63;;;19.50;41.70;;;;;;4990574;28;20555;-68
2021/01/19 04:28:08;;;;;;;2.87;2.50;;;19.60;41.70;;;;;;4989014;28;20484;-68
2021/01/19 04:30:35;;;;;;;3.80;2.90;;;19.60;41.80;;;;;;4987171;28;20496;-68
2021/01/19 04:33:02;;;;;;;2.90;2.70;;;19.60;41.80;;;;;;4992672;28;20485;-68
2021/01/19 04:35:28;;;;;;;3.20;2.90;;;19.60;41.80;;;;;;4992828;28;20491;-67
2021/01/19 04:37:54;;;;;;;2.80;2.60;;;19.70;41.80;;;;;;4997786;28;21133;-68
2021/01/19 04:40:20;;;;;;;2.63;2.43;;;19.60;41.80;;;;;;4995619;28;20488;-68
2021/01/19 04:42:46;;;;;;;3.20;3.00;;;19.60;41.80;;;;;;4986939;28;21531;-68
2021/01/19 04:45:13;;;;;;;2.97;2.47;;;19.60;42.00;;;;;;4991476;28;20504;-67
2021/01/19 04:47:40;;;;;;;2.53;2.33;;;19.60;42.00;;;;;;4991842;28;20491;-67
2021/01/19 04:50:07;;;;;;;3.00;2.80;;;19.50;42.10;;;;;;5003675;28;20571;-67
2021/01/19 04:52:34;;;;;;;2.77;2.57;;;19.40;42.20;;;;;;4995904;28;20499;-67
2021/01/19 04:55:04;;;;;;;2.77;2.57;;;19.40;42.40;;;;;;4989970;28;20492;-68
2021/01/19 04:57:31;;;;;;;2.60;2.50;;;19.40;42.50;;;;;;4994482;28;20493;-67
2021/01/19 05:00:00;;;;;;;2.37;2.27;;;19.30;42.40;;;;;;4990612;28;20495;-68
2021/01/19 05:02:51;;;;;;;2.67;2.50;;;19.40;42.40;;;;;;4989953;28;20511;-68
2021/01/19 05:05:57;;;;;;;3.90;3.53;;;19.40;42.60;;;;;;4990354;28;20868;-68
2021/01/19 05:08:54;;;;;;;3.57;2.80;;;19.40;42.50;;;;;;4953648;28;20552;-67
2021/01/19 05:11:22;;;;;;;3.20;2.33;;;19.40;42.50;;;;;;4988111;28;20530;-68
2021/01/19 05:13:59;;;;;;;2.40;2.20;;;19.30;42.50;;;;;;4995273;28;21512;-67
2021/01/19 05:16:27;;;;;;;2.63;2.43;;;19.30;42.60;;;;;;4980617;28;20485;-69
2021/01/19 05:18:53;;;;;;;2.70;2.33;;;19.30;42.50;;;;;;4982609;28;20921;-67
2021/01/19 05:21:20;;;;;;;2.03;1.90;;;19.40;42.40;;;;;;4991722;28;20483;-68
2021/01/19 05:23:46;;;;;;;2.93;2.00;;;19.40;42.40;;;;;;4987901;28;22722;-67
2021/01/19 05:26:13;;;;;;;2.30;2.10;;;19.50;42.40;;;;;;4989313;28;20489;-66
2021/01/19 05:28:41;;;;;;;1.70;1.60;;;19.50;42.40;;;;;;4993543;28;21486;-67
2021/01/19 05:31:16;;;;;;;1.60;1.50;;;19.50;42.40;;;;;;4992475;28;21394;-68
2021/01/19 05:33:43;;;;;;;2.50;2.40;;;19.50;42.30;;;;;;4994597;28;20488;-69
2021/01/19 05:36:10;;;;;;;5.40;2.17;;;19.60;42.20;;;;;;4985623;28;20482;-68
2021/01/19 05:38:46;;;;;;;3.03;2.40;;;19.60;42.10;;;;;;4992851;28;20488;-67
2021/01/19 05:41:25;;;;;;;5.23;2.80;;;19.60;42.10;;;;;;4992310;28;20492;-68
2021/01/19 05:43:53;;;;;;;2.93;2.73;;;19.60;42.10;;;;;;4991915;28;20583;-68
2021/01/19 05:46:24;;;;;;;1.83;1.83;;;19.60;42.10;;;;;;4993851;28;20488;-68
2021/01/19 05:48:52;;;;;;;2.30;2.10;;;19.60;42.20;;;;;;4994994;28;20480;-68
2021/01/19 05:51:19;;;;;;;1.97;1.80;;;19.60;42.20;;;;;;4993404;28;20935;-68
2021/01/19 05:53:51;;;;;;;2.37;2.27;;;19.50;42.10;;;;;;4991368;28;20492;-68
2021/01/19 05:56:19;;;;;;;1.60;1.50;;;19.60;42.10;;;;;;4998210;28;20566;-68
2021/01/19 05:58:45;;;;;;;2.37;1.93;;;19.60;42.00;;;;;;4992310;28;20861;-68
2021/01/19 06:01:11;;;;;;;2.67;2.47;;;19.50;42.10;;;;;;4988775;28;20903;-67
2021/01/19 06:03:37;;;;;;;2.63;1.97;;;19.50;42.20;;;;;;4990878;28;20485;-68
2021/01/19 06:06:12;;;;;;;2.10;2.00;;;19.50;42.10;;;;;;4988725;28;20485;-68
2021/01/19 06:08:39;;;;;;;1.93;1.70;;;19.60;42.10;;;;;;4992495;28;20484;-67
2021/01/19 06:11:07;;;;;;;2.10;2.00;;;19.60;41.80;;;;;;4992643;28;20885;-67
2021/01/19 06:13:34;;;;;;;2.23;2.03;;;19.70;41.80;;;;;;4995096;28;20485;-67
2021/01/19 06:16:07;;;;;;;1.93;1.93;;;19.70;41.70;;;;;;4991999;28;20512;-67
2021/01/19 06:18:36;;;;;;;2.00;1.90;;;19.70;41.60;;;;;;4990080;28;21008;-67
2021/01/19 06:21:02;;;;;;;1.70;1.43;;;19.70;41.60;;;;;;4989928;28;20558;-67
2021/01/19 06:23:29;;;;;;;1.50;1.40;;;19.70;41.50;;;;;;4992994;28;20484;-68
2021/01/19 06:26:04;;;;;;;1.53;1.20;;;19.70;41.70;;;;;;4992030;28;20481;-68
2021/01/19 06:28:31;;;;;;;1.37;1.37;;;19.70;41.80;;;;;;4982957;28;20599;-68
2021/01/19 06:30:57;;;;;;;1.13;1.03;;;19.70;41.90;;;;;;4983449;28;21044;-68
2021/01/19 06:33:23;;;;;;;1.47;1.37;;;19.60;41.80;;;;;;4979826;28;20847;-68
2021/01/19 06:35:53;;;;;;;0.97;0.97;;;19.70;42.00;;;;;;4984587;28;20468;-68
2021/01/19 06:38:20;;;;;;;5.83;0.93;;;19.70;42.20;;;;;;4985443;28;20489;-67
2021/01/19 06:40:46;;;;;;;1.53;1.10;;;19.60;42.10;;;;;;4982951;28;20481;-68
2021/01/19 06:43:12;;;;;;;1.00;1.00;;;19.60;42.10;;;;;;4974742;28;20481;-69
2021/01/19 06:45:39;;;;;;;1.30;1.20;;;19.60;42.20;;;;;;4981600;28;21545;-67
2021/01/19 06:48:06;;;;;;;1.80;1.23;;;19.60;42.20;;;;;;4973836;28;20493;-67
2021/01/19 06:50:34;;;;;;;4.93;1.27;;;19.60;42.30;;;;;;4984530;28;20499;-68
2021/01/19 06:53:16;;;;;;;1.47;0.90;;;19.60;42.30;;;;;;4987619;28;20875;-68
2021/01/19 06:55:51;;;;;;;1.00;1.00;;;19.60;42.30;;;;;;4982927;28;20492;-67
2021/01/19 06:58:18;;;;;;;1.40;1.30;;;19.60;42.30;;;;;;4986261;28;21442;-67
2021/01/19 07:00:45;;;;;;;1.20;1.20;;;19.60;42.40;;;;;;4985125;28;20548;-68
2021/01/19 07:03:22;;;;;;;1.00;1.00;;;19.60;42.40;;;;;;4987554;28;20884;-68
2021/01/19 07:05:53;;;;;;;1.10;1.00;;;19.60;42.40;;;;;;4985245;28;20515;-68
2021/01/19 07:08:40;;;;;;;1.00;1.00;;;19.70;42.50;;;;;;4989784;28;20484;-68
2021/01/19 07:11:09;;;;;;;0.90;0.90;;;19.60;42.30;;;;;;4978942;28;20496;-68
2021/01/19 07:13:37;;;;;;;2.30;1.13;;;19.70;42.40;;;;;;4984979;28;20471;-68
2021/01/19 07:16:05;;;;;;;1.00;1.00;;;19.70;42.40;;;;;;4989562;28;20474;-68
2021/01/19 07:18:58;;;;;;;1.20;1.10;;;19.70;42.30;;;;;;4994671;28;20492;-68
2021/01/19 07:21:34;;;;;;;1.10;1.10;;;19.60;42.30;;;;;;4972115;28;20491;-67
2021/01/19 07:24:17;;;;;;;1.43;1.17;;;19.70;42.50;;;;;;4983097;28;20492;-68
2021/01/19 07:26:44;;;;;;;1.77;0.80;;;19.60;42.50;;;;;;4984722;28;20539;-67
2021/01/19 07:29:10;;;;;;;0.90;0.90;;;19.50;42.40;;;;;;4986212;28;20488;-68
2021/01/19 07:31:37;;;;;;;0.80;0.80;;;19.50;42.50;;;;;;4987492;28;20487;-67
2021/01/19 07:34:04;;;;;;;1.17;1.17;;;19.50;42.60;;;;;;4976260;28;20570;-68
2021/01/19 07:36:31;;;;;;;2.47;1.13;;;19.50;42.60;;;;;;4988191;28;21083;-68
2021/01/19 07:38:57;;;;;;;1.03;0.83;;;19.50;42.60;;;;;;4988744;28;21177;-68
2021/01/19 07:41:27;;;;;;;1.00;1.00;;;19.50;42.70;;;;;;4985878;28;20488;-68
2021/01/19 07:43:53;;;;;;;2.87;1.10;;;19.50;42.60;;;;;;4976699;28;20493;-68
2021/01/19 07:46:22;;;;;;;1.00;0.97;;;19.50;42.60;;;;;;4984675;28;20500;-69
2021/01/19 07:48:59;;;;;;;1.83;1.00;;;19.50;42.70;;;;;;4991845;28;20543;-68
2021/01/19 07:51:25;;;;;;;1.00;0.90;;;19.50;42.80;;;;;;4992853;28;20977;-68
2021/01/19 07:53:52;;;;;;;1.33;0.77;;;19.50;42.70;;;;;;4975794;28;20495;-68
2021/01/19 07:56:24;;;;;;;1.00;1.00;;;19.60;42.60;;;;;;4989663;28;20485;-68
2021/01/19 07:58:50;;;;;;;4.47;0.93;;;19.60;42.50;;;;;;4988586;28;20500;-69
2021/01/19 08:01:24;;;;;;;1.00;0.90;;;19.60;42.50;;;;;;4985404;28;20482;-67
2021/01/19 08:03:51;;;;;;;0.97;0.97;;;19.60;42.50;;;;;;4984448;28;20542;-68
2021/01/19 08:06:17;;;;;;;0.80;0.80;;;19.70;42.60;;;;;;4986362;28;20495;-68
2021/01/19 08:08:44;;;;;;;0.90;0.90;;;19.60;42.60;;;;;;4990722;28;20497;-69
2021/01/19 08:11:19;;;;;;;1.00;1.00;;;19.60;42.70;;;;;;4992696;28;20511;-67
2021/01/19 08:13:46;;;;;;;0.60;0.60;;;19.50;42.80;;;;;;4990764;28;20662;-68
2021/01/19 08:16:12;;;;;;;1.17;0.90;;;19.50;42.90;;;;;;4989764;28;20473;-68
2021/01/19 08:18:39;;;;;;;1.30;1.20;;;19.50;42.90;;;;;;4990063;28;20488;-68
2021/01/19 08:21:07;;;;;;;1.13;1.13;;;19.60;42.80;;;;;;4989838;28;21454;-68
2021/01/19 08:23:33;;;;;;;1.27;1.17;;;19.50;42.80;;;;;;4977378;28;20485;-68
2021/01/19 08:26:02;;;;;;;0.70;0.70;;;19.60;42.90;;;;;;4976762;28;20488;-69
2021/01/19 08:28:28;;;;;;;1.00;1.00;;;19.50;42.90;;;;;;4992408;28;21058;-68
2021/01/19 08:30:54;;;;;;;1.03;1.00;;;19.50;42.90;;;;;;4990237;28;20885;-68
2021/01/19 08:33:20;;;;;;;1.47;1.13;;;19.50;43.00;;;;;;4988079;28;20491;-68
2021/01/19 08:35:48;;;;;;;1.07;0.90;;;19.50;43.00;;;;;;4978512;28;20511;-68
2021/01/19 08:38:15;;;;;;;1.33;1.00;;;19.50;43.00;;;;;;4989948;28;20485;-67
2021/01/19 08:40:41;;;;;;;0.77;0.77;;;19.40;42.90;;;;;;4993596;28;20496;-68
2021/01/19 08:43:09;;;;;;;1.10;1.10;;;19.50;43.00;;;;;;4992175;28;20492;-67
2021/01/19 08:45:38;;;;;;;0.60;0.60;;;19.40;43.00;;;;;;4982636;28;20570;-68
2021/01/19 08:48:05;;;;;;;0.90;0.90;;;19.50;43.10;;;;;;4993355;28;20622;-68
2021/01/19 08:50:34;;;;;;;0.80;0.80;;;19.40;43.00;;;;;;4984709;28;20495;-68
2021/01/19 08:53:06;;;;;;;0.87;0.87;;;19.50;43.00;;;;;;4990312;28;20476;-69
2021/01/19 08:55:34;;;;;;;0.90;0.80;;;19.50;43.00;;;;;;4978624;28;21140;-68
2021/01/19 08:58:00;;;;;;;0.90;0.90;;;19.50;43.00;;;;;;4991645;28;20479;-69
2021/01/19 09:00:27;;;;;;;1.03;0.80;;;19.50;43.00;;;;;;4992549;28;20496;-68
2021/01/19 09:02:54;;;;;;;0.80;0.70;;;19.50;43.10;;;;;;4991157;28;20483;-68
2021/01/19 09:05:24;;;;;;;0.60;0.60;;;19.50;43.00;;;;;;4983329;28;20516;-68
2021/01/19 09:07:50;;;;;;;0.90;0.90;;;19.50;43.10;;;;;;4992140;28;20476;-68
2021/01/19 09:10:20;;;;;;;1.53;0.80;;;19.40;43.00;;;;;;4993142;28;20488;-68
2021/01/19 09:12:47;;;;;;;0.80;0.80;;;19.40;43.10;;;;;;4990287;28;20492;-68
2021/01/19 09:15:14;;;;;;;0.90;0.90;;;19.40;43.10;;;;;;4983416;28;20507;-68
2021/01/19 09:17:41;;;;;;;0.70;0.70;;;19.40;43.20;;;;;;4983468;28;21267;-69
2021/01/19 09:20:07;;;;;;;0.60;0.60;;;19.40;43.20;;;;;;4997125;28;20490;-69
2021/01/19 09:22:34;;;;;;;0.60;0.60;;;19.40;43.20;;;;;;4990587;28;20547;-69
2021/01/19 09:25:00;;;;;;;0.80;0.80;;;19.40;43.20;;;;;;4991288;28;20476;-69
2021/01/19 09:27:26;;;;;;;0.80;0.80;;;19.30;43.20;;;;;;4991606;28;20468;-69
2021/01/19 09:30:03;;;;;;;1.00;0.53;;;19.40;43.20;;;;;;4992601;28;20476;-68
2021/01/19 09:32:29;;;;;;;0.90;0.90;;;19.40;43.20;;;;;;4982633;28;20480;-69
2021/01/19 09:34:55;;;;;;;0.73;0.73;;;19.40;43.20;;;;;;4989622;28;20480;-69
2021/01/19 09:37:21;;;;;;;0.70;0.70;;;19.40;43.20;;;;;;4990889;28;20502;-69
2021/01/19 09:39:48;;;;;;;1.37;0.70;;;19.40;43.20;;;;;;4993309;28;20522;-69
2021/01/19 09:42:14;;;;;;;1.13;0.80;;;19.50;43.10;;;;;;4990471;28;20488;-68
2021/01/19 09:44:40;;;;;;;0.63;0.63;;;19.50;43.00;;;;;;4990321;28;20483;-69
2021/01/19 09:47:09;;;;;;;0.60;0.60;;;19.50;43.00;;;;;;4993197;28;20472;-69
2021/01/19 09:49:35;;;;;;;0.80;0.80;;;19.60;43.00;;;;;;4992769;28;20477;-69
2021/01/19 09:52:08;;;;;;;0.50;0.50;;;19.60;42.90;;;;;;4988767;28;20604;-69
2021/01/19 09:54:34;;;;;;;0.87;0.87;;;19.70;42.90;;;;;;4989286;28;20476;-69
2021/01/19 09:57:00;;;;;;;1.23;0.87;;;19.60;42.70;;;;;;4980616;28;20619;-69
2021/01/19 09:59:27;;;;;;;0.80;0.80;;;19.70;42.80;;;;;;4986952;28;20493;-69
2021/01/19 10:01:54;;;;;;;0.73;0.73;;;19.70;42.70;;;;;;4985410;28;20476;-69
2021/01/19 10:04:22;;;;;;;0.87;0.87;;;19.80;42.70;;;;;;4989395;28;21011;-69
2021/01/19 10:06:48;;;;;;;0.50;0.50;;;19.70;42.60;;;;;;4994064;28;20899;-69
2021/01/19 10:09:21;;;;;;;0.90;0.90;;;19.70;42.60;;;;;;4980469;28;20545;-69
2021/01/19 10:11:55;;;;;;;0.90;0.70;;;19.70;42.60;;;;;;4978759;28;20492;-68
2021/01/19 10:14:21;;;;;;;0.50;0.50;;;19.70;42.80;;;;;;4989605;28;20481;-69
2021/01/19 10:16:48;;;;;;;0.80;0.80;;;19.70;42.80;;;;;;4988284;28;20480;-69
2021/01/19 10:19:20;;;;;;;0.60;0.60;;;19.70;42.80;;;;;;4991504;28;20535;-68
2021/01/19 10:21:49;;;;;;;0.97;0.50;;;19.60;42.80;;;;;;4988008;28;20480;-69
2021/01/19 10:24:16;;;;;;;0.60;0.60;;;19.60;43.60;;;;;;4989392;28;20523;-68
2021/01/19 10:26:44;;;;;;;0.80;0.67;;;19.60;42.80;;;;;;4987931;28;20560;-68
2021/01/19 10:29:10;;;;;;;0.47;0.47;;;19.60;42.80;;;;;;4986833;28;20872;-69
2021/01/19 10:31:37;;;;;;;0.60;0.60;;;19.60;42.90;;;;;;4977281;28;20503;-67
2021/01/19 10:34:04;;;;;;;0.50;0.50;;;19.60;42.80;;;;;;4986639;28;20540;-68
2021/01/19 10:36:31;;;;;;;0.70;0.70;;;19.60;42.80;;;;;;4987741;28;20496;-68
2021/01/19 10:39:10;;;;;;;0.73;0.60;;;19.70;42.80;;;;;;4987509;28;20476;-67
2021/01/19 10:41:36;;;;;;;0.50;0.50;;;19.70;42.80;;;;;;4984271;28;20473;-70
2021/01/19 10:44:02;;;;;;;1.80;0.57;;;19.80;42.80;;;;;;4987199;28;20498;-69
2021/01/19 10:46:31;;;;;;;0.60;0.60;;;19.80;42.70;;;;;;4991022;28;20484;-68
2021/01/19 10:49:04;;;;;;;0.80;0.80;;;19.80;42.60;;;;;;4994686;28;20497;-68
2021/01/19 10:51:31;;;;;;;0.87;0.80;;;19.80;42.70;;;;;;4984933;28;20569;-70
2021/01/19 10:54:09;;;;;;;1.03;0.80;;;19.80;42.70;;;;;;4986582;28;20488;-68
2021/01/19 10:56:35;;;;;;;0.87;0.87;;;19.60;43.40;;;;;;4988171;28;20496;-68
2021/01/19 10:59:01;;;;;;;0.90;0.90;;;19.60;43.20;;;;;;4991052;28;20551;-68
2021/01/19 11:01:27;;;;;;;0.60;0.60;;;19.70;43.10;;;;;;4994270;28;20476;-68
2021/01/19 11:03:54;;;;;;;0.60;0.60;;;19.70;43.10;;;;;;4990779;28;20472;-69
2021/01/19 11:06:20;;;;;;;2.20;0.50;;;19.70;43.10;;;;;;4988289;28;21024;-70
2021/01/19 11:08:46;;;;;;;0.50;0.50;;;19.70;43.20;;;;;;4990489;28;20484;-68
2021/01/19 11:11:13;;;;;;;0.60;0.60;;;19.70;43.20;;;;;;4991831;28;21447;-68
2021/01/19 11:13:40;;;;;;;0.60;0.60;;;19.60;43.20;;;;;;4988029;28;20500;-68
2021/01/19 11:16:06;;;;;;;1.37;0.70;;;19.50;43.10;;;;;;4989166;28;20477;-67
2021/01/19 11:18:34;;;;;;;0.60;0.60;;;19.50;42.80;;;;;;4977064;28;21016;-68
2021/01/19 11:21:01;;;;;;;1.77;1.03;;;19.50;42.80;;;;;;4998476;28;20488;-68
2021/01/19 11:23:27;;;;;;;1.87;0.93;;;19.50;42.80;;;;;;4986248;28;20530;-67
2021/01/19 11:25:53;;;;;;;0.53;0.53;;;19.50;42.90;;;;;;4992813;28;20964;-67
2021/01/19 11:28:20;;;;;;;0.63;0.63;;;19.50;42.90;;;;;;4984063;28;20480;-68
2021/01/19 11:30:47;;;;;;;0.80;0.80;;;19.50;42.90;;;;;;4989286;28;20507;-67
2021/01/19 11:33:13;;;;;;;0.83;0.83;;;19.50;42.90;;;;;;4991956;28;20489;-68
2021/01/19 11:35:39;;;;;;;1.47;0.50;;;19.50;43.00;;;;;;4988401;28;20537;-68
2021/01/19 11:38:05;;;;;;;0.50;0.50;;;19.50;43.00;;;;;;4991382;28;20473;-68
2021/01/19 11:40:31;;;;;;;0.60;0.60;;;19.50;43.00;;;;;;4994037;28;20496;-69
2021/01/19 11:42:58;;;;;;;0.60;0.60;;;19.50;43.00;;;;;;4991306;28;20949;-68
2021/01/19 11:45:25;;;;;;;0.50;0.50;;;19.60;43.10;;;;;;4995586;28;21657;-68
2021/01/19 11:47:52;;;;;;;0.80;0.80;;;19.60;43.10;;;;;;4994261;28;20874;-68
2021/01/19 11:50:18;;;;;;;0.50;0.50;;;19.60;43.20;;;;;;4989968;28;20484;-68
2021/01/19 11:52:44;;;;;;;0.60;0.60;;;19.50;43.10;;;;;;4993504;28;20481;-68
2021/01/19 11:55:11;;;;;;;0.70;0.70;;;19.60;43.00;;;;;;4994074;28;20876;-68
2021/01/19 11:57:37;;;;;;;0.70;0.70;;;19.50;43.10;;;;;;4997627;28;20534;-68
2021/01/19 12:00:06;;;;;;;0.50;0.50;;;19.50;43.20;;;;;;4991441;28;20519;-69
2021/01/19 12:02:33;;;;;;;0.50;0.50;;;19.50;43.20;;;;;;4994802;28;20481;-68
2021/01/19 12:04:59;;;;;;;0.57;0.57;;;19.50;44.10;;;;;;4967230;28;21064;-68
2021/01/19 12:07:25;;;;;;;1.23;0.70;;;19.50;43.30;;;;;;4995562;28;20480;-68
2021/01/19 12:09:51;;;;;;;0.60;0.60;;;19.50;43.30;;;;;;4996306;28;20476;-68
2021/01/19 12:12:17;;;;;;;3.50;1.03;;;19.50;43.30;;;;;;4976659;28;20542;-68
2021/01/19 12:14:43;;;;;;;0.50;0.50;;;19.50;43.30;;;;;;5001424;28;20492;-68
2021/01/19 12:17:10;;;;;;;0.70;0.70;;;19.50;43.30;;;;;;4984931;28;20499;-68
2021/01/19 12:19:37;;;;;;;0.60;0.60;;;19.50;43.30;;;;;;4997719;28;20906;-68
2021/01/19 12:22:03;;;;;;;0.70;0.70;;;19.50;43.30;;;;;;4993832;28;20485;-68
2021/01/19 12:24:30;;;;;;;0.60;0.60;;;19.50;43.30;;;;;;4981284;28;20477;-68
2021/01/19 12:26:56;;;;;;;0.60;0.60;;;19.50;43.40;;;;;;4995366;28;21038;-68
2021/01/19 12:29:24;;;;;;;0.80;0.80;;;19.50;43.30;;;;;;4983957;28;20589;-69
2021/01/19 12:31:50;;;;;;;0.50;0.50;;;19.50;43.30;;;;;;4984036;28;20533;-68
2021/01/19 12:34:17;;;;;;;1.13;0.80;;;19.50;43.40;;;;;;4995941;28;20484;-69
2021/01/19 12:36:44;;;;;;;0.80;0.60;;;19.50;43.40;;;;;;4991416;28;20480;-69
2021/01/19 12:39:11;;;;;;;1.83;0.70;;;19.50;43.40;;;;;;4995676;28;20512;-69
2021/01/19 12:41:37;;;;;;;0.87;0.60;;;19.50;43.40;;;;;;4994316;28;20480;-69
2021/01/19 12:44:04;;;;;;;0.50;0.50;;;19.50;43.40;;;;;;4991124;28;20481;-68
2021/01/19 12:46:30;;;;;;;4.00;0.50;;;19.50;43.40;;;;;;4983611;28;20468;-68
2021/01/19 12:48:56;;;;;;;1.73;0.60;;;19.50;43.40;;;;;;4994697;28;20480;-68
2021/01/19 12:51:22;;;;;;;0.57;0.57;;;19.50;43.40;;;;;;4993341;28;20489;-68
2021/01/19 12:53:50;;;;;;;0.97;0.50;;;19.50;43.40;;;;;;4991084;28;20484;-69